Time;durP1;ratioP1;P1;durP2;ratioP2;P2;SDS_P1;SDS_P2;PMS_P1;PMS_P2;Temp;Humidity;BMP_temperature;BMP_pressure;BME280_temperature;BME280_humidity;BME280_pressure;Samples;Min_cycle;Max_cycle;Signal;HPM_P1;HPM_P2
2021/01/12 00:00:47;;;;;;;;;;;;;;;24.84;31.07;100653.28;5109252;28;1406;-50
2021/01/12 00:03:12;;;;;;;;;;;;;;;24.84;30.96;100653.28;5109947;28;1894;-50
2021/01/12 00:05:37;;;;;;;;;;;;;;;24.84;31.21;100650.59;5106141;28;1430;-49
2021/01/12 00:08:07;;;;;;;;;;;;;;;24.83;30.76;100662.38;5109039;28;1358;-54
2021/01/12 00:10:32;;;;;;;;;;;;;;;24.84;31.06;100659.47;5107669;28;1576;-51
2021/01/12 00:12:58;;;;;;;;;;;;;;;24.85;30.89;100661.09;5108456;28;1342;-47
2021/01/12 00:15:23;;;;;;;;;;;;;;;24.84;30.71;100662.13;5112246;28;1639;-48
2021/01/12 00:17:48;;;;;;;;;;;;;;;24.85;30.94;100653.06;5114877;27;1433;-49
2021/01/12 00:20:13;;;;;;;;;;;;;;;24.90;30.66;100656.94;5111326;27;1441;-51
2021/01/12 00:22:39;;;;;;;;;;;;;;;24.91;30.65;100642.50;5115236;28;1953;-48
2021/01/12 00:25:08;;;;;;;;;;;;;;;24.88;30.86;100631.16;5112855;28;1442;-50
2021/01/12 00:27:33;;;;;;;;;;;;;;;24.87;30.60;100632.22;5111421;27;1463;-52
2021/01/12 00:29:58;;;;;;;;;;;;;;;24.87;30.92;100631.41;5114785;28;1473;-53
2021/01/12 00:32:24;;;;;;;;;;;;;;;24.88;31.10;100630.34;5111908;27;1505;-50
2021/01/12 00:34:50;;;;;;;;;;;;;;;24.91;30.79;100616.50;5108665;28;1179;-53
2021/01/12 00:37:16;;;;;;;;;;;;;;;24.95;31.16;100623.06;5106549;28;1382;-49
2021/01/12 00:39:41;;;;;;;;;;;;;;;24.93;30.54;100622.47;5110142;28;1583;-50
2021/01/12 00:42:06;;;;;;;;;;;;;;;24.87;30.87;100612.63;5109153;28;1969;-47
2021/01/12 00:44:31;;;;;;;;;;;;;;;24.88;30.98;100623.13;5112598;28;1517;-54
2021/01/12 00:46:57;;;;;;;;;;;;;;;24.87;30.98;100620.69;5108337;28;1445;-57
2021/01/12 00:49:23;;;;;;;;;;;;;;;24.81;30.94;100611.63;5110468;28;1496;-55
2021/01/12 00:51:48;;;;;;;;;;;;;;;24.78;31.19;100605.91;5093774;28;1184;-58
2021/01/12 00:54:14;;;;;;;;;;;;;;;24.70;31.00;100605.13;5114101;28;1477;-58
2021/01/12 00:56:40;;;;;;;;;;;;;;;24.68;31.00;100603.69;5111754;28;1207;-57
2021/01/12 00:59:05;;;;;;;;;;;;;;;24.65;30.86;100606.81;5113336;28;1587;-57
2021/01/12 01:01:31;;;;;;;;;;;;;;;24.62;31.01;100602.72;5102701;28;1967;-57
2021/01/12 01:03:56;;;;;;;;;;;;;;;24.58;31.01;100602.31;5109236;28;1376;-57
2021/01/12 01:06:22;;;;;;;;;;;;;;;24.56;30.84;100596.38;5112363;28;1445;-59
2021/01/12 01:08:47;;;;;;;;;;;;;;;24.51;30.94;100588.16;5105753;28;1401;-59
2021/01/12 01:11:12;;;;;;;;;;;;;;;24.56;30.92;100579.47;5110297;28;1449;-55
2021/01/12 01:13:38;;;;;;;;;;;;;;;24.54;31.07;100576.19;5109847;28;1410;-57
2021/01/12 01:16:03;;;;;;;;;;;;;;;24.50;30.91;100586.53;5107492;28;1442;-57
2021/01/12 01:18:28;;;;;;;;;;;;;;;24.47;30.93;100581.59;5111307;28;1378;-53
2021/01/12 01:20:53;;;;;;;;;;;;;;;24.44;31.20;100576.69;5112615;28;1386;-56
2021/01/12 01:23:18;;;;;;;;;;;;;;;24.43;31.17;100575.03;5110957;28;1965;-55
2021/01/12 01:25:44;;;;;;;;;;;;;;;24.41;31.20;100566.41;5105441;28;1485;-56
2021/01/12 01:28:09;;;;;;;;;;;;;;;24.37;31.32;100573.22;5108291;28;1398;-55
2021/01/12 01:30:34;;;;;;;;;;;;;;;24.36;31.11;100571.59;5109279;28;1222;-57
2021/01/12 01:32:59;;;;;;;;;;;;;;;24.33;31.01;100564.81;5106583;28;1445;-57
2021/01/12 01:35:25;;;;;;;;;;;;;;;24.32;31.00;100565.88;5108898;28;1637;-57
2021/01/12 01:37:51;;;;;;;;;;;;;;;24.31;30.95;100555.34;5109445;28;1371;-56
2021/01/12 01:40:19;;;;;;;;;;;;;;;24.29;30.90;100547.56;5113057;28;1414;-54
2021/01/12 01:42:44;;;;;;;;;;;;;;;24.27;31.25;100553.09;5108314;28;1929;-55
2021/01/12 01:45:10;;;;;;;;;;;;;;;24.26;31.33;100553.34;5112599;28;1438;-51
2021/01/12 01:47:35;;;;;;;;;;;;;;;24.25;31.17;100546.34;5106218;28;1680;-57
2021/01/12 01:50:01;;;;;;;;;;;;;;;24.25;31.11;100549.03;5097826;28;1021;-56
2021/01/12 01:52:26;;;;;;;;;;;;;;;24.24;30.89;100542.03;5102847;28;1135;-57
2021/01/12 01:54:55;;;;;;;;;;;;;;;24.21;31.04;100532.56;5099473;28;1044;-53
2021/01/12 01:57:20;;;;;;;;;;;;;;;24.21;31.09;100521.03;5096154;28;1296;-54
2021/01/12 01:59:45;;;;;;;;;;;;;;;24.19;31.25;100525.78;5104957;28;1209;-57
2021/01/12 02:02:10;;;;;;;;;;;;;;;24.18;31.23;100522.28;5096929;28;1898;-57
2021/01/12 02:04:38;;;;;;;;;;;;;;;24.17;31.10;100519.84;5109675;28;1033;-54
2021/01/12 02:07:06;;;;;;;;;;;;;;;24.16;31.33;100515.50;5095092;28;1191;-56
2021/01/12 02:09:51;;;;;;;;;;;;;;;24.14;31.11;100511.19;5101407;28;1226;-55
2021/01/12 02:12:34;;;;;;;;;;;;;;;24.12;31.31;100520.47;5108612;28;1185;-56
2021/01/12 02:15:02;;;;;;;;;;;;;;;24.11;31.22;100522.34;5102724;28;1144;-57
2021/01/12 02:17:27;;;;;;;;;;;;;;;24.10;31.14;100526.06;5104231;28;1243;-56
2021/01/12 02:19:53;;;;;;;;;;;;;;;24.09;31.34;100519.06;5093950;28;1206;-56
2021/01/12 02:22:19;;;;;;;;;;;;;;;24.08;31.28;100521.94;5101434;28;2038;-56
2021/01/12 02:24:45;;;;;;;;;;;;;;;24.06;31.32;100514.16;5094493;28;1081;-54
2021/01/12 02:27:10;;;;;;;;;;;;;;;24.06;31.24;100499.91;5098172;28;1230;-53
2021/01/12 02:29:35;;;;;;;;;;;;;;;24.04;31.23;100488.59;5103112;28;1547;-54
2021/01/12 02:32:00;;;;;;;;;;;;;;;24.03;31.47;100489.66;5097688;28;1243;-56
2021/01/12 02:34:26;;;;;;;;;;;;;;;24.03;31.10;100485.13;5102327;28;1158;-55
2021/01/12 02:36:52;;;;;;;;;;;;;;;24.03;31.23;100482.44;5093560;28;1147;-54
2021/01/12 02:39:17;;;;;;;;;;;;;;;24.00;31.35;100486.38;5100671;28;1274;-54
2021/01/12 02:41:42;;;;;;;;;;;;;;;24.00;31.39;100475.66;5102145;28;1902;-55
2021/01/12 02:44:24;;;;;;;;;;;;;;;24.01;31.19;100468.47;5100231;28;1192;-55
2021/01/12 02:46:49;;;;;;;;;;;;;;;23.99;31.38;100470.50;5101021;28;1528;-58
2021/01/12 02:49:15;;;;;;;;;;;;;;;23.99;31.08;100460.63;5107108;28;1262;-53
2021/01/12 02:51:40;;;;;;;;;;;;;;;23.97;31.29;100451.97;5112455;28;1025;-55
2021/01/12 02:54:05;;;;;;;;;;;;;;;23.97;31.06;100449.28;5104235;28;1138;-57
2021/01/12 02:56:30;;;;;;;;;;;;;;;23.95;31.19;100446.00;5100150;28;1227;-56
2021/01/12 02:58:55;;;;;;;;;;;;;;;23.96;31.13;100439.63;5099996;28;1176;-57
2021/01/12 03:01:20;;;;;;;;;;;;;;;23.95;31.09;100434.50;5097078;28;1897;-57
2021/01/12 03:03:46;;;;;;;;;;;;;;;23.94;31.20;100430.97;5104222;28;1072;-57
2021/01/12 03:06:11;;;;;;;;;;;;;;;23.94;31.22;100432.84;5112408;28;1467;-53
2021/01/12 03:08:36;;;;;;;;;;;;;;;23.94;31.35;100430.19;5103733;28;1287;-58
2021/01/12 03:11:01;;;;;;;;;;;;;;;23.92;31.46;100421.56;5103247;28;1329;-54
2021/01/12 03:13:27;;;;;;;;;;;;;;;23.93;31.18;100415.97;5099601;28;1156;-58
2021/01/12 03:15:52;;;;;;;;;;;;;;;23.93;31.35;100410.59;5104337;28;1226;-55
2021/01/12 03:18:17;;;;;;;;;;;;;;;23.92;31.31;100411.66;5109694;28;1309;-56
2021/01/12 03:20:42;;;;;;;;;;;;;;;23.92;31.40;100400.94;5109277;28;1069;-57
2021/01/12 03:23:07;;;;;;;;;;;;;;;23.93;31.52;100391.06;5098838;28;1960;-55
2021/01/12 03:25:32;;;;;;;;;;;;;;;23.92;31.17;100378.72;5103087;28;1147;-54
2021/01/12 03:27:58;;;;;;;;;;;;;;;23.92;31.52;100373.34;5100853;28;1296;-54
2021/01/12 03:30:23;;;;;;;;;;;;;;;23.91;31.01;100380.56;5100663;28;1172;-56
2021/01/12 03:32:49;;;;;;;;;;;;;;;23.90;31.40;100367.41;5099927;28;1069;-54
2021/01/12 03:35:14;;;;;;;;;;;;;;;23.89;31.46;100347.84;5100631;28;1253;-57
2021/01/12 03:37:40;;;;;;;;;;;;;;;23.89;31.23;100352.38;5100589;28;1374;-58
2021/01/12 03:40:05;;;;;;;;;;;;;;;23.88;31.20;100346.19;5092052;28;1105;-58
2021/01/12 03:42:31;;;;;;;;;;;;;;;23.88;31.22;100340.03;5106317;28;1968;-57
2021/01/12 03:44:56;;;;;;;;;;;;;;;23.88;31.18;100321.28;5099764;28;1166;-55
2021/01/12 03:47:21;;;;;;;;;;;;;;;23.87;31.29;100319.66;5097958;28;1288;-56
2021/01/12 03:49:46;;;;;;;;;;;;;;;23.86;31.50;100318.81;5104149;28;1142;-53
2021/01/12 03:52:11;;;;;;;;;;;;;;;23.86;31.42;100308.13;5103389;28;1019;-55
2021/01/12 03:54:37;;;;;;;;;;;;;;;23.85;31.25;100299.28;5098209;28;1197;-53
2021/01/12 03:57:02;;;;;;;;;;;;;;;23.85;31.32;100303.81;5101513;28;1413;-53
2021/01/12 03:59:27;;;;;;;;;;;;;;;23.84;31.21;100308.31;5072790;28;1305;-57
2021/01/12 04:01:52;;;;;;;;;;;;;;;23.84;31.42;100302.16;5099993;28;1996;-53
2021/01/12 04:04:19;;;;;;;;;;;;;;;23.83;31.53;100295.19;5102541;28;1076;-57
2021/01/12 04:06:44;;;;;;;;;;;;;;;23.82;31.31;100291.66;5105894;28;1180;-57
2021/01/12 04:09:09;;;;;;;;;;;;;;;23.82;31.48;100280.16;5101411;28;1288;-55
2021/01/12 04:11:36;;;;;;;;;;;;;;;23.81;31.26;100287.34;5088685;28;1636;-53
2021/01/12 04:14:01;;;;;;;;;;;;;;;23.81;31.29;100276.66;5101103;28;1017;-57
2021/01/12 04:16:26;;;;;;;;;;;;;;;23.80;31.36;100272.34;5104617;28;1286;-53
2021/01/12 04:18:51;;;;;;;;;;;;;;;23.80;31.33;100271.53;5104404;28;1388;-57
2021/01/12 04:21:17;;;;;;;;;;;;;;;23.79;31.52;100264.53;5102453;28;1901;-56
2021/01/12 04:23:42;;;;;;;;;;;;;;;23.79;31.46;100264.53;5099148;28;1148;-55
2021/01/12 04:26:07;;;;;;;;;;;;;;;23.79;31.47;100251.97;5101906;28;1134;-56
2021/01/12 04:28:32;;;;;;;;;;;;;;;23.80;31.36;100255.47;5106029;28;1360;-58
2021/01/12 04:30:58;;;;;;;;;;;;;;;23.79;31.34;100259.19;5103085;28;1142;-55
2021/01/12 04:33:23;;;;;;;;;;;;;;;23.80;31.51;100250.13;5103592;28;1064;-55
2021/01/12 04:35:48;;;;;;;;;;;;;;;23.79;31.27;100246.59;5100658;28;1130;-52
2021/01/12 04:38:13;;;;;;;;;;;;;;;23.78;31.49;100244.97;5101454;28;1311;-58
2021/01/12 04:40:38;;;;;;;;;;;;;;;23.79;31.37;100245.81;5098016;28;1195;-58
2021/01/12 04:43:04;;;;;;;;;;;;;;;23.78;31.32;100250.31;5101013;28;1898;-57
2021/01/12 04:45:29;;;;;;;;;;;;;;;23.76;31.42;100236.34;5110370;28;1221;-55
2021/01/12 04:47:54;;;;;;;;;;;;;;;23.75;31.38;100232.03;5101585;28;1432;-57
2021/01/12 04:50:20;;;;;;;;;;;;;;;23.76;31.33;100225.63;5099788;28;1181;-57
2021/01/12 04:52:46;;;;;;;;;;;;;;;23.76;31.38;100227.50;5101123;28;1120;-56
2021/01/12 04:55:11;;;;;;;;;;;;;;;23.75;31.51;100212.50;5101722;28;1115;-52
2021/01/12 04:57:37;;;;;;;;;;;;;;;23.75;31.48;100210.63;5102946;28;1306;-55
2021/01/12 05:00:07;;;;;;;;;;;;;;;23.75;31.54;100212.50;5103396;28;1120;-56
2021/01/12 05:02:32;;;;;;;;;;;;;;;23.73;31.34;100207.34;5098532;28;1897;-56
2021/01/12 05:04:57;;;;;;;;;;;;;;;23.73;31.41;100188.63;5102904;28;1194;-55
2021/01/12 05:07:22;;;;;;;;;;;;;;;23.71;31.39;100188.84;5098071;28;1283;-54
2021/01/12 05:09:47;;;;;;;;;;;;;;;23.73;31.38;100185.94;5102720;28;1297;-56
2021/01/12 05:12:14;;;;;;;;;;;;;;;23.70;31.37;100179.19;5097175;28;1131;-58
2021/01/12 05:14:41;;;;;;;;;;;;;;;23.69;31.44;100176.72;5101263;28;1139;-58
2021/01/12 05:17:07;;;;;;;;;;;;;;;23.70;31.55;100173.84;5102702;28;1104;-58
2021/01/12 05:19:32;;;;;;;;;;;;;;;23.73;31.48;100182.47;5098491;28;1207;-58
2021/01/12 05:21:59;;;;;;;;;;;;;;;23.71;31.43;100161.25;5102019;28;1898;-56
2021/01/12 05:24:24;;;;;;;;;;;;;;;23.70;31.55;100168.50;5097698;28;1213;-53
2021/01/12 05:26:50;;;;;;;;;;;;;;;23.71;31.71;100167.44;5102841;28;1137;-56
2021/01/12 05:29:15;;;;;;;;;;;;;;;23.70;31.60;100163.13;5102663;28;1200;-55
2021/01/12 05:31:43;;;;;;;;;;;;;;;23.71;31.40;100164.78;5100846;28;1571;-57
2021/01/12 05:34:09;;;;;;;;;;;;;;;23.70;31.68;100152.44;5102675;28;1234;-56
2021/01/12 05:36:47;;;;;;;;;;;;;;;23.69;31.74;100152.63;5110101;28;1146;-53
2021/01/12 05:39:15;;;;;;;;;;;;;;;23.69;31.37;100152.63;5101983;28;1203;-55
2021/01/12 05:41:42;;;;;;;;;;;;;;;23.68;31.48;100142.97;5095764;28;1937;-56
2021/01/12 05:44:11;;;;;;;;;;;;;;;23.69;31.47;100144.63;5096358;28;1285;-57
2021/01/12 05:46:37;;;;;;;;;;;;;;;23.68;31.53;100142.97;5106182;28;1946;-57
2021/01/12 05:49:02;;;;;;;;;;;;;;;23.66;31.62;100135.19;5108110;28;1385;-55
2021/01/12 05:51:28;;;;;;;;;;;;;;;23.64;31.31;100139.94;5104265;28;1164;-54
2021/01/12 05:53:59;;;;;;;;;;;;;;;23.62;31.37;100136.69;5107461;28;1046;-54
2021/01/12 05:56:25;;;;;;;;;;;;;;;23.60;31.43;100128.06;5105324;28;1649;-53
2021/01/12 05:58:51;;;;;;;;;;;;;;;23.59;31.50;100123.75;5101119;28;1373;-53
2021/01/12 06:01:35;;;;;;;;;;;;;;;23.62;31.53;100122.47;5100561;28;1898;-53
2021/01/12 06:04:02;;;;;;;;;;;;;;;23.62;31.33;100107.25;5105578;28;1077;-52
2021/01/12 06:06:28;;;;;;;;;;;;;;;23.64;31.32;100115.03;5106818;28;1582;-56
2021/01/12 06:08:53;;;;;;;;;;;;;;;23.63;31.70;100106.19;5100212;28;1317;-54
2021/01/12 06:11:19;;;;;;;;;;;;;;;23.65;31.55;100103.28;5090981;28;1515;-52
2021/01/12 06:13:52;;;;;;;;;;;;;;;23.63;31.55;100095.50;5102996;28;1237;-55
2021/01/12 06:16:21;;;;;;;;;;;;;;;23.64;31.55;100089.09;5107125;28;1216;-54
2021/01/12 06:18:59;;;;;;;;;;;;;;;23.64;31.84;100104.34;5108834;28;1487;-56
2021/01/12 06:21:26;;;;;;;;;;;;;;;23.61;31.74;100100.25;5111177;28;1909;-52
2021/01/12 06:23:54;;;;;;;;;;;;;;;23.61;31.63;100089.56;5112081;28;1489;-54
2021/01/12 06:26:20;;;;;;;;;;;;;;;23.60;31.60;100087.91;5111524;28;1487;-52
2021/01/12 06:28:45;;;;;;;;;;;;;;;23.60;31.67;100079.91;5105210;28;1228;-54
2021/01/12 06:31:10;;;;;;;;;;;;;;;23.60;31.71;100089.75;5101902;28;1613;-55
2021/01/12 06:33:36;;;;;;;;;;;;;;;23.60;31.56;100081.75;5102503;28;1057;-55
2021/01/12 06:36:02;;;;;;;;;;;;;;;23.59;31.58;100086.28;5101843;28;1464;-54
2021/01/12 06:38:28;;;;;;;;;;;;;;;23.58;31.46;100071.28;5098831;28;1327;-55
2021/01/12 06:40:56;;;;;;;;;;;;;;;23.56;31.38;100079.50;5096640;28;1108;-56
2021/01/12 06:43:24;;;;;;;;;;;;;;;23.56;31.19;100066.13;5099049;28;1890;-54
2021/01/12 06:45:49;;;;;;;;;;;;;;;23.55;31.26;100069.06;5102723;28;1134;-54
2021/01/12 06:48:14;;;;;;;;;;;;;;;23.56;31.24;100068.00;5097990;28;1285;-52
2021/01/12 06:50:43;;;;;;;;;;;;;;;23.56;30.91;100076.03;5096546;28;1379;-54
2021/01/12 06:53:11;;;;;;;;;;;;;;;23.56;30.90;100073.38;5098370;28;1148;-57
2021/01/12 06:55:36;;;;;;;;;;;;;;;23.54;30.85;100067.41;5095806;28;1147;-53
2021/01/12 06:58:06;;;;;;;;;;;;;;;23.54;30.97;100067.41;5101804;28;1353;-52
2021/01/12 07:00:33;;;;;;;;;;;;;;;23.54;30.79;100076.25;5097100;28;1116;-53
2021/01/12 07:02:59;;;;;;;;;;;;;;;23.53;30.91;100063.91;5099525;28;1894;-54
2021/01/12 07:05:24;;;;;;;;;;;;;;;23.52;30.77;100061.47;5098411;28;1226;-53
2021/01/12 07:07:51;;;;;;;;;;;;;;;23.52;30.68;100066.84;5095760;28;1227;-52
2021/01/12 07:10:20;;;;;;;;;;;;;;;23.51;30.61;100057.97;5100694;28;1202;-52
2021/01/12 07:12:45;;;;;;;;;;;;;;;23.51;30.64;100065.19;5095374;28;1132;-56
2021/01/12 07:15:15;;;;;;;;;;;;;;;23.50;30.77;100064.38;5102271;28;1565;-53
2021/01/12 07:17:41;;;;;;;;;;;;;;;23.51;30.54;100067.88;5110977;28;1396;-56
2021/01/12 07:20:19;;;;;;;;;;;;;;;23.51;30.42;100063.31;5110936;28;1169;-51
2021/01/12 07:22:50;;;;;;;;;;;;;;;23.50;30.69;100052.84;5101837;28;1952;-52
2021/01/12 07:25:18;;;;;;;;;;;;;;;23.50;30.72;100056.34;5105683;28;1228;-54
2021/01/12 07:27:44;;;;;;;;;;;;;;;23.50;30.54;100048.31;5109401;28;1402;-52
2021/01/12 07:30:10;;;;;;;;;;;;;;;23.49;30.31;100053.91;5105761;28;1393;-54
2021/01/12 07:32:36;;;;;;;;;;;;;;;23.50;30.37;100053.66;5105254;28;1486;-55
2021/01/12 07:35:06;;;;;;;;;;;;;;;23.48;30.31;100045.03;5105962;28;1523;-54
2021/01/12 07:37:35;;;;;;;;;;;;;;;23.48;30.35;100044.25;5104509;28;1469;-56
2021/01/12 07:40:01;;;;;;;;;;;;;;;23.47;30.51;100050.63;5108449;28;1496;-54
2021/01/12 07:42:26;;;;;;;;;;;;;;;23.46;30.50;100041.78;5106209;28;1933;-55
2021/01/12 07:44:51;;;;;;;;;;;;;;;23.45;30.50;100032.13;5110075;28;1531;-54
2021/01/12 07:47:17;;;;;;;;;;;;;;;23.47;30.35;100039.94;5106184;28;1501;-54
2021/01/12 07:49:42;;;;;;;;;;;;;;;23.48;30.49;100036.22;5101506;28;1267;-55
2021/01/12 07:52:09;;;;;;;;;;;;;;;23.48;30.47;100029.00;5100012;28;1507;-56
2021/01/12 07:54:34;;;;;;;;;;;;;;;23.50;30.52;100032.25;5101415;28;1191;-54
2021/01/12 07:57:00;;;;;;;;;;;;;;;23.47;30.69;100030.03;5105256;28;1436;-52
2021/01/12 07:59:25;;;;;;;;;;;;;;;23.47;30.80;100035.38;5108234;28;1519;-54
2021/01/12 08:01:51;;;;;;;;;;;;;;;23.49;30.76;100030.63;5083834;28;1898;-57
2021/01/12 08:04:16;;;;;;;;;;;;;;;23.50;30.86;100020.75;5076133;28;1501;-58
2021/01/12 08:06:47;;;;;;;;;;;;;;;23.51;31.13;100025.88;5107235;28;1398;-55
2021/01/12 08:09:22;;;;;;;;;;;;;;;23.52;30.92;100032.84;5108216;28;1382;-56
2021/01/12 08:11:49;;;;;;;;;;;;;;;23.54;31.04;100029.97;5108467;28;1140;-58
2021/01/12 08:14:14;;;;;;;;;;;;;;;23.55;31.10;100020.91;5107863;28;1394;-59
2021/01/12 08:16:39;;;;;;;;;;;;;;;23.56;31.02;100017.19;5107221;28;1417;-56
2021/01/12 08:19:05;;;;;;;;;;;;;;;23.55;30.91;100024.38;5101069;28;1406;-56
2021/01/12 08:21:42;;;;;;;;;;;;;;;23.57;30.90;100024.16;5107474;28;1893;-58
2021/01/12 08:24:08;;;;;;;;;;;;;;;23.58;30.89;100028.47;5105012;28;1367;-57
2021/01/12 08:26:33;;;;;;;;;;;;;;;23.58;30.97;100012.41;5110272;28;1450;-58
2021/01/12 08:28:59;;;;;;;;;;;;;;;23.60;30.91;100017.53;5109193;28;1395;-55
2021/01/12 08:31:24;;;;;;;;;;;;;;;23.60;31.06;100021.03;5109341;28;1478;-59
2021/01/12 08:33:50;;;;;;;;;;;;;;;23.60;30.82;100007.66;5092821;28;1355;-61
2021/01/12 08:36:17;;;;;;;;;;;;;;;23.61;30.95;100016.47;5110759;28;1453;-62
2021/01/12 08:38:43;;;;;;;;;;;;;;;23.61;31.25;100003.94;5109157;28;1627;-63
2021/01/12 08:41:08;;;;;;;;;;;;;;;23.61;30.81;99998.59;5111684;28;1322;-60
2021/01/12 08:43:35;;;;;;;;;;;;;;;23.62;30.82;100008.25;5110890;28;1898;-59
2021/01/12 08:46:01;;;;;;;;;;;;;;;23.61;30.94;100003.94;5110692;28;1374;-60
2021/01/12 08:48:26;;;;;;;;;;;;;;;23.63;30.92;100003.69;5108091;28;1465;-58
2021/01/12 08:50:52;;;;;;;;;;;;;;;23.63;30.86;100015.22;5110477;28;1218;-57
2021/01/12 08:53:18;;;;;;;;;;;;;;;23.66;30.91;100009.41;5107437;28;1434;-57
2021/01/12 08:55:43;;;;;;;;;;;;;;;23.68;30.99;100011.84;5092193;28;1386;-59
2021/01/12 08:58:09;;;;;;;;;;;;;;;23.68;30.79;100004.66;5107605;28;1408;-60
2021/01/12 09:00:35;;;;;;;;;;;;;;;23.69;30.99;100002.78;5109920;28;1548;-58
2021/01/12 09:03:01;;;;;;;;;;;;;;;23.71;30.93;100009.56;5114320;28;1964;-57
2021/01/12 09:05:26;;;;;;;;;;;;;;;23.73;31.00;100011.19;5113749;28;1437;-59
2021/01/12 09:08:08;;;;;;;;;;;;;;;23.71;31.08;100006.88;5106775;28;1275;-56
2021/01/12 09:10:34;;;;;;;;;;;;;;;23.75;30.79;99998.41;5107767;28;1449;-60
2021/01/12 09:12:59;;;;;;;;;;;;;;;23.77;31.02;100002.47;5111111;28;1421;-63
2021/01/12 09:15:34;;;;;;;;;;;;;;;23.82;30.80;100018.66;5112114;28;1402;-55
2021/01/12 09:18:13;;;;;;;;;;;;;;;23.83;30.82;100004.22;5111002;28;1390;-59
2021/01/12 09:20:38;;;;;;;;;;;;;;;23.85;30.50;100001.31;5086604;28;1453;-60
2021/01/12 09:23:07;;;;;;;;;;;;;;;23.88;30.60;100010.78;5092549;28;1897;-61
2021/01/12 09:25:33;;;;;;;;;;;;;;;23.91;30.51;100003.09;5085676;28;1366;-63
2021/01/12 09:28:15;;;;;;;;;;;;;;;23.96;30.45;100000.53;5094428;28;1370;-64
2021/01/12 09:30:41;;;;;;;;;;;;;;;24.00;30.60;100004.41;5082587;28;1366;-59
2021/01/12 09:33:06;;;;;;;;;;;;;;;24.04;30.65;100001.28;5112979;28;1505;-62
2021/01/12 09:35:32;;;;;;;;;;;;;;;24.09;30.32;99996.88;5098454;28;1270;-55
2021/01/12 09:37:57;;;;;;;;;;;;;;;24.13;30.59;100010.63;5109096;28;1381;-53
2021/01/12 09:40:23;;;;;;;;;;;;;;;24.14;30.08;100012.25;5112787;28;1484;-53
2021/01/12 09:42:48;;;;;;;;;;;;;;;24.13;30.45;100014.13;5109385;28;1910;-57
2021/01/12 09:45:13;;;;;;;;;;;;;;;24.13;30.32;99999.91;5110675;28;1576;-56
2021/01/12 09:47:38;;;;;;;;;;;;;;;24.10;30.40;100005.72;5112148;28;1392;-52
2021/01/12 09:50:05;;;;;;;;;;;;;;;24.04;30.48;99999.44;5112448;28;1307;-56
2021/01/12 09:52:30;;;;;;;;;;;;;;;24.02;30.53;100004.22;5111602;28;1469;-57
2021/01/12 09:54:55;;;;;;;;;;;;;;;24.01;30.74;100005.25;5113293;28;1402;-53
2021/01/12 09:57:20;;;;;;;;;;;;;;;23.99;30.54;100013.50;5110913;28;1438;-56
2021/01/12 09:59:45;;;;;;;;;;;;;;;23.99;30.61;100001.97;5108969;28;1288;-55
2021/01/12 10:02:10;;;;;;;;;;;;;;;23.97;30.39;100002.16;5103290;28;1898;-58
2021/01/12 10:04:36;;;;;;;;;;;;;;;23.94;30.40;99991.94;5109695;28;1460;-56
2021/01/12 10:07:01;;;;;;;;;;;;;;;23.89;30.54;99989.13;5109727;28;1472;-58
2021/01/12 10:09:27;;;;;;;;;;;;;;;23.85;30.22;100004.84;5102448;28;1531;-57
2021/01/12 10:11:52;;;;;;;;;;;;;;;23.84;30.66;99997.03;5099039;28;1158;-59
2021/01/12 10:14:18;;;;;;;;;;;;;;;23.84;30.38;99997.03;5094887;28;1303;-59
2021/01/12 10:16:43;;;;;;;;;;;;;;;23.83;30.50;99993.50;5111696;28;1563;-59
2021/01/12 10:19:08;;;;;;;;;;;;;;;23.83;30.48;99990.03;5100279;28;1274;-55
2021/01/12 10:21:34;;;;;;;;;;;;;;;23.84;30.33;99991.66;5102640;28;1893;-57
2021/01/12 10:23:59;;;;;;;;;;;;;;;23.83;30.74;99998.06;5094074;28;1187;-53
2021/01/12 10:26:25;;;;;;;;;;;;;;;23.83;29.99;99979.31;5105002;28;1516;-59
2021/01/12 10:28:50;;;;;;;;;;;;;;;23.82;30.19;99988.41;5106528;28;1311;-60
2021/01/12 10:31:17;;;;;;;;;;;;;;;23.80;30.17;99983.25;5095880;28;1279;-60
2021/01/12 10:33:42;;;;;;;;;;;;;;;23.78;29.99;99979.19;5095607;28;1103;-61
2021/01/12 10:36:11;;;;;;;;;;;;;;;23.77;30.34;99983.72;5097511;28;1516;-59
2021/01/12 10:38:36;;;;;;;;;;;;;;;23.73;29.91;99982.56;5105163;28;1900;-58
2021/01/12 10:41:01;;;;;;;;;;;;;;;23.72;30.04;99970.22;5099312;28;1022;-59
2021/01/12 10:43:26;;;;;;;;;;;;;;;23.73;30.21;99979.06;5096595;28;2002;-52
2021/01/12 10:45:52;;;;;;;;;;;;;;;23.72;30.14;99972.88;5099219;28;1088;-57
2021/01/12 10:48:17;;;;;;;;;;;;;;;23.73;30.39;99965.69;5110658;28;1408;-62
2021/01/12 10:50:43;;;;;;;;;;;;;;;23.67;30.41;99972.75;5098606;28;1415;-62
2021/01/12 10:53:08;;;;;;;;;;;;;;;23.61;30.29;99962.97;5100231;28;1214;-60
2021/01/12 10:55:33;;;;;;;;;;;;;;;23.58;30.12;99960.75;5102286;28;1281;-63
2021/01/12 10:57:58;;;;;;;;;;;;;;;23.52;30.47;99954.47;5102691;28;1389;-61
2021/01/12 11:00:24;;;;;;;;;;;;;;;23.54;30.23;99949.69;5099386;28;1146;-62
2021/01/12 11:02:49;;;;;;;;;;;;;;;23.55;30.62;99946.78;5095001;28;1894;-58
2021/01/12 11:05:15;;;;;;;;;;;;;;;23.58;30.84;99942.03;5105750;28;1166;-55
2021/01/12 11:07:40;;;;;;;;;;;;;;;23.60;30.75;99932.75;5097879;28;1327;-57
2021/01/12 11:10:06;;;;;;;;;;;;;;;23.59;30.53;99928.44;5095075;28;1165;-57
2021/01/12 11:12:32;;;;;;;;;;;;;;;23.59;30.68;99933.78;5093013;28;1232;-56
2021/01/12 11:14:57;;;;;;;;;;;;;;;23.61;30.55;99920.16;5095428;28;1284;-58
2021/01/12 11:17:24;;;;;;;;;;;;;;;23.61;30.67;99929.00;5100291;28;1253;-59
2021/01/12 11:19:50;;;;;;;;;;;;;;;23.62;30.35;99927.97;5100551;28;1143;-58
2021/01/12 11:22:15;;;;;;;;;;;;;;;23.61;30.38;99912.13;5094620;28;1909;-56
2021/01/12 11:24:40;;;;;;;;;;;;;;;23.61;30.48;99915.63;5094952;28;1236;-55
2021/01/12 11:27:06;;;;;;;;;;;;;;;23.60;30.53;99910.50;5093647;28;1267;-60
2021/01/12 11:29:31;;;;;;;;;;;;;;;23.60;30.19;99905.97;5095603;28;1393;-56
2021/01/12 11:31:57;;;;;;;;;;;;;;;23.60;30.52;99905.97;5103819;28;1556;-58
2021/01/12 11:34:22;;;;;;;;;;;;;;;23.60;31.03;99895.28;5102511;28;1297;-62
2021/01/12 11:36:48;;;;;;;;;;;;;;;23.59;30.68;99899.00;5101327;28;1191;-58
2021/01/12 11:39:14;;;;;;;;;;;;;;;23.59;30.72;99892.81;5095055;28;1319;-57
2021/01/12 11:41:51;;;;;;;;;;;;;;;23.59;30.52;99882.94;5096803;28;1905;-57
2021/01/12 11:44:17;;;;;;;;;;;;;;;23.58;30.61;99878.63;5096319;28;1233;-54
2021/01/12 11:46:42;;;;;;;;;;;;;;;23.59;30.46;99880.28;5101040;28;1193;-54
2021/01/12 11:49:07;;;;;;;;;;;;;;;23.60;30.42;99875.72;5094664;28;1386;-59
2021/01/12 11:51:33;;;;;;;;;;;;;;;23.58;30.47;99881.31;5100087;28;1307;-54
2021/01/12 11:53:58;;;;;;;;;;;;;;;23.57;30.44;99882.38;5096137;28;1243;-57
2021/01/12 11:56:23;;;;;;;;;;;;;;;23.58;30.58;99873.28;5106340;28;1452;-56
2021/01/12 11:58:50;;;;;;;;;;;;;;;23.60;30.78;99876.56;5108211;28;1394;-52
2021/01/12 12:01:15;;;;;;;;;;;;;;;23.61;30.77;99880.03;5097943;28;1248;-52
2021/01/12 12:03:40;;;;;;;;;;;;;;;23.63;31.27;99877.94;5094764;28;1906;-52
2021/01/12 12:06:05;;;;;;;;;;;;;;;23.65;31.30;99875.84;5099649;28;1288;-50
2021/01/12 12:08:30;;;;;;;;;;;;;;;23.66;31.19;99870.28;5112045;28;1327;-50
2021/01/12 12:11:00;;;;;;;;;;;;;;;23.68;31.23;99862.00;5107587;28;1362;-52
2021/01/12 12:13:25;;;;;;;;;;;;;;;23.69;31.31;99866.31;5096558;28;1157;-49
2021/01/12 12:15:50;;;;;;;;;;;;;;;23.71;31.47;99870.41;5106670;28;1480;-54
2021/01/12 12:18:15;;;;;;;;;;;;;;;23.71;31.30;99867.72;5109880;28;1306;-54
2021/01/12 12:20:41;;;;;;;;;;;;;;;23.73;31.66;99861.31;5114083;28;1422;-53
2021/01/12 12:23:06;;;;;;;;;;;;;;;23.72;31.67;99857.81;5115852;28;1948;-52
2021/01/12 12:25:31;;;;;;;;;;;;;;;23.70;31.44;99871.44;5112521;28;1272;-50
2021/01/12 12:27:56;;;;;;;;;;;;;;;23.69;32.35;99844.91;5102213;28;1386;-50
2021/01/12 12:30:22;;;;;;;;;;;;;;;23.68;31.70;99836.06;5099069;28;1128;-47
2021/01/12 12:32:47;;;;;;;;;;;;;;;23.70;31.36;99850.03;5106830;28;1594;-48
2021/01/12 12:35:12;;;;;;;;;;;;;;;23.71;31.47;99846.31;5101233;28;1295;-51
2021/01/12 12:37:37;;;;;;;;;;;;;;;23.76;31.72;99847.47;5103145;28;1323;-53
2021/01/12 12:40:03;;;;;;;;;;;;;;;23.79;31.87;99847.81;5105522;28;1291;-50
2021/01/12 12:42:28;;;;;;;;;;;;;;;23.79;31.79;99844.34;5115509;28;1968;-51